Time;durP1;ratioP1;P1;durP2;ratioP2;P2;SDS_P1;SDS_P2;PMS_P1;PMS_P2;Temp;Humidity;BMP_temperature;BMP_pressure;BME280_temperature;BME280_humidity;BME280_pressure;Samples;Min_cycle;Max_cycle;Signal;HPM_P1;HPM_P2
2021/10/10 00:01:45;;;;;;;10.75;6.35;;;;;;;9.03;65.54;98193.94;4998122;28;20036;-83
2021/10/10 00:04:11;;;;;;;10.73;6.65;;;;;;;9.00;65.43;98194.34;4998266;28;20032;-82
2021/10/10 00:06:36;;;;;;;11.07;6.53;;;;;;;9.02;65.54;98188.94;5008610;28;20025;-82
2021/10/10 00:09:03;;;;;;;10.02;6.47;;;;;;;8.98;65.50;98204.16;5014299;28;20029;-82
2021/10/10 00:11:29;;;;;;;9.55;6.20;;;;;;;8.98;65.67;98201.56;4997946;28;20041;-82
2021/10/10 00:13:54;;;;;;;11.63;7.28;;;;;;;8.91;65.33;98204.19;4982017;28;20026;-82
2021/10/10 00:16:20;;;;;;;12.40;6.28;;;;;;;8.83;65.42;98199.22;5000564;28;20037;-82
2021/10/10 00:18:45;;;;;;;10.15;6.60;;;;;;;8.86;65.42;98203.19;5030688;28;20108;-82
2021/10/10 00:21:11;;;;;;;9.93;6.30;;;;;;;8.75;66.28;98195.06;5001340;28;20042;-82
2021/10/10 00:23:36;;;;;;;10.07;6.35;;;;;;;8.84;65.64;98193.00;5011276;28;20034;-82
2021/10/10 00:26:03;;;;;;;9.20;6.53;;;;;;;8.80;65.86;98200.44;5017098;28;20100;-82
2021/10/10 00:28:28;;;;;;;9.13;6.55;;;;;;;8.75;65.54;98195.06;4984712;28;20057;-82
2021/10/10 00:30:56;;;;;;;9.13;6.10;;;;;;;8.70;65.32;98194.88;5014213;28;20083;-82
2021/10/10 00:33:21;;;;;;;11.57;6.60;;;;;;;8.69;65.69;98203.69;5006969;28;20113;-82
2021/10/10 00:35:47;;;;;;;11.23;6.25;;;;;;;8.68;65.95;98196.88;5009106;28;20061;-82
2021/10/10 00:38:12;;;;;;;9.38;6.15;;;;;;;8.69;66.29;98198.50;5012089;28;20038;-82
2021/10/10 00:40:37;;;;;;;10.88;6.40;;;;;;;8.72;66.17;98192.91;5010487;28;20485;-82
2021/10/10 00:43:03;;;;;;;10.93;6.80;;;;;;;8.70;66.40;98183.72;5003565;28;20034;-82
2021/10/10 00:45:28;;;;;;;11.10;5.75;;;;;;;8.72;66.07;98192.91;4992067;28;20037;-82
2021/10/10 00:47:54;;;;;;;9.90;6.32;;;;;;;8.70;66.17;98194.88;5001119;28;20037;-82
2021/10/10 00:50:19;;;;;;;11.73;6.72;;;;;;;8.71;66.89;98191.28;5007169;28;20035;-82
2021/10/10 00:52:45;;;;;;;10.27;6.30;;;;;;;8.77;66.33;98190.47;5021321;28;20028;-82
2021/10/10 00:55:11;;;;;;;11.20;6.07;;;;;;;8.77;65.96;98198.25;5009666;28;20025;-81
2021/10/10 00:57:45;;;;;;;9.80;6.82;;;;;;;8.71;66.03;98186.09;5001007;28;20034;-81
2021/10/10 01:00:12;;;;;;;9.88;6.07;;;;;;;8.77;66.13;98198.25;5018226;28;20499;-81
2021/10/10 01:02:39;;;;;;;9.90;5.68;;;;;;;8.73;66.59;98189.28;5013724;28;20256;-83
2021/10/10 01:05:05;;;;;;;9.65;7.25;;;;;;;8.81;66.62;98189.03;5021287;28;20025;-82
2021/10/10 01:07:30;;;;;;;10.95;6.82;;;;;;;8.84;66.76;98185.22;4992190;28;20125;-83
2021/10/10 01:09:57;;;;;;;10.68;6.22;;;;;;;8.72;66.84;98187.69;5017278;28;20072;-81
2021/10/10 01:12:23;;;;;;;8.60;5.70;;;;;;;8.73;67.09;98183.31;5001007;28;20088;-83
2021/10/10 01:14:49;;;;;;;11.35;6.78;;;;;;;8.68;67.05;98185.72;5017442;28;20481;-83
2021/10/10 01:17:14;;;;;;;10.30;6.43;;;;;;;8.71;66.44;98180.91;5017287;28;20082;-83
2021/10/10 01:19:41;;;;;;;10.40;6.60;;;;;;;8.70;66.25;98187.09;4985032;28;20036;-83
2021/10/10 01:22:07;;;;;;;10.52;6.40;;;;;;;8.70;66.02;98181.91;5037200;28;20086;-84
2021/10/10 01:24:33;;;;;;;10.73;6.63;;;;;;;8.74;65.92;98187.47;5020344;28;20751;-84
2021/10/10 01:26:58;;;;;;;8.35;5.90;;;;;;;8.72;66.22;98182.50;5037186;28;20036;-84
2021/10/10 01:29:24;;;;;;;10.10;5.65;;;;;;;8.71;66.29;98175.72;5020147;28;20033;-84
2021/10/10 01:31:49;;;;;;;10.73;6.47;;;;;;;8.71;66.04;98162.72;5003881;28;20025;-84
2021/10/10 01:34:14;;;;;;;8.77;6.28;;;;;;;8.72;66.06;98166.94;5004126;28;20044;-84
2021/10/10 01:36:41;;;;;;;10.98;6.28;;;;;;;8.69;65.78;98169.94;4986981;28;20485;-84
2021/10/10 01:39:06;;;;;;;9.45;5.95;;;;;;;8.60;66.18;98159.00;5000315;28;20032;-84
2021/10/10 01:41:32;;;;;;;10.57;6.93;;;;;;;8.56;65.69;98159.59;4984497;28;20025;-84
2021/10/10 01:43:57;;;;;;;11.20;6.60;;;;;;;8.55;65.84;98150.22;5000509;28;20033;-84
2021/10/10 01:46:23;;;;;;;10.52;6.47;;;;;;;8.57;65.98;98161.22;4984328;28;20576;-84
2021/10/10 01:48:48;;;;;;;11.68;6.80;;;;;;;8.41;65.57;98149.44;4983117;28;20034;-83
2021/10/10 01:51:14;;;;;;;10.10;6.63;;;;;;;8.34;66.47;98153.88;5029566;28;20064;-83
2021/10/10 01:53:40;;;;;;;11.45;6.07;;;;;;;8.34;66.17;98154.66;5036440;28;20035;-84
2021/10/10 01:56:06;;;;;;;9.80;6.88;;;;;;;8.34;66.01;98157.25;5035965;28;20036;-84
2021/10/10 01:58:32;;;;;;;9.93;6.05;;;;;;;8.30;66.42;98156.09;5000073;28;20040;-84
2021/10/10 02:00:58;;;;;;;10.60;6.65;;;;;;;8.28;65.73;98159.88;4983964;28;20021;-84
2021/10/10 02:03:23;;;;;;;10.63;6.13;;;;;;;8.21;66.13;98152.91;5016741;28;20497;-84
2021/10/10 02:05:50;;;;;;;8.63;5.80;;;;;;;8.16;66.12;98150.16;5032714;28;20082;-84
2021/10/10 02:08:16;;;;;;;11.90;6.28;;;;;;;8.16;66.09;98147.56;4996224;28;20029;-84
2021/10/10 02:10:41;;;;;;;11.13;6.40;;;;;;;8.18;66.24;98145.53;4985296;28;20495;-84
2021/10/10 02:13:07;;;;;;;9.65;5.68;;;;;;;8.20;66.08;98147.94;4965414;28;20104;-84
2021/10/10 02:15:32;;;;;;;10.60;6.63;;;;;;;8.17;66.78;98135.38;4983852;28;20650;-84
2021/10/10 02:17:57;;;;;;;11.32;6.90;;;;;;;8.20;66.38;98137.56;4996202;28;20041;-84
2021/10/10 02:20:23;;;;;;;12.35;7.10;;;;;;;8.17;66.33;98135.38;5003713;28;20032;-84
2021/10/10 02:22:48;;;;;;;9.77;6.10;;;;;;;8.21;67.04;98139.16;4999551;28;20026;-83
2021/10/10 02:25:14;;;;;;;11.25;6.55;;;;;;;8.11;66.74;98134.41;5015945;28;20033;-84
2021/10/10 02:27:39;;;;;;;12.07;7.15;;;;;;;8.09;66.95;98140.78;4991567;28;20044;-83
2021/10/10 02:30:05;;;;;;;9.90;6.90;;;;;;;8.06;66.67;98147.19;4999381;28;20036;-83
2021/10/10 02:32:33;;;;;;;10.88;5.70;;;;;;;8.04;66.43;98136.22;5015964;28;20034;-83
2021/10/10 02:35:13;;;;;;;9.00;5.45;;;;;;;7.97;66.32;98135.41;4969371;28;20045;-83
2021/10/10 02:37:43;;;;;;;9.27;6.10;;;;;;;7.99;66.80;98136.03;4979902;28;20041;-83
2021/10/10 02:40:09;;;;;;;10.38;5.95;;;;;;;7.99;66.78;98144.59;5012682;28;20030;-84
2021/10/10 02:42:35;;;;;;;9.48;6.40;;;;;;;8.00;67.31;98141.00;4964315;28;20072;-84
2021/10/10 02:45:00;;;;;;;9.95;5.95;;;;;;;7.92;66.89;98140.41;4998857;28;20049;-84
2021/10/10 02:47:25;;;;;;;10.68;6.43;;;;;;;7.86;66.72;98142.03;4999337;28;20104;-84
2021/10/10 02:49:51;;;;;;;10.38;6.63;;;;;;;7.81;66.61;98144.44;4982757;28;20033;-83
2021/10/10 02:52:17;;;;;;;8.07;5.60;;;;;;;7.74;66.25;98144.44;4998850;28;20033;-84
2021/10/10 02:54:43;;;;;;;9.55;5.38;;;;;;;7.71;66.72;98133.69;4999118;28;20028;-84
2021/10/10 02:57:10;;;;;;;8.73;5.50;;;;;;;7.58;66.16;98132.69;5015460;28;20054;-84
2021/10/10 02:59:35;;;;;;;8.77;4.82;;;;;;;7.55;66.26;98146.06;4998680;28;20079;-84
2021/10/10 03:02:01;;;;;;;11.77;6.72;;;;;;;7.36;66.86;98139.88;5015329;28;20116;-84
2021/10/10 03:04:26;;;;;;;8.65;5.60;;;;;;;7.26;66.63;98132.50;4999138;28;20036;-84
2021/10/10 03:06:51;;;;;;;8.45;6.15;;;;;;;7.15;66.85;98133.09;5017338;28;20028;-84
2021/10/10 03:09:17;;;;;;;9.70;5.75;;;;;;;7.22;66.92;98135.72;5002312;28;20025;-84
2021/10/10 03:11:42;;;;;;;9.52;5.55;;;;;;;7.22;66.81;98136.50;5018512;28;20036;-83
2021/10/10 03:14:08;;;;;;;11.77;6.68;;;;;;;7.25;66.86;98136.09;5009792;28;20080;-83
2021/10/10 03:16:33;;;;;;;8.73;5.90;;;;;;;7.28;67.19;98138.31;4997431;28;20038;-83
2021/10/10 03:18:58;;;;;;;11.40;6.05;;;;;;;7.26;67.42;98131.72;4998512;28;20590;-83
2021/10/10 03:21:24;;;;;;;10.00;5.60;;;;;;;7.22;67.41;98131.31;5015098;28;20056;-83
2021/10/10 03:23:49;;;;;;;9.10;6.10;;;;;;;7.13;68.28;98127.34;4979175;28;20098;-83
2021/10/10 03:26:15;;;;;;;10.27;6.03;;;;;;;7.07;68.12;98125.53;4979466;28;20036;-83
2021/10/10 03:28:40;;;;;;;10.85;6.60;;;;;;;7.00;68.11;98135.88;4963396;28;20033;-83
2021/10/10 03:31:06;;;;;;;11.18;6.10;;;;;;;7.00;68.22;98135.09;4995604;28;20382;-83
2021/10/10 03:33:31;;;;;;;9.65;5.65;;;;;;;6.96;67.73;98116.56;4995701;28;20482;-83
2021/10/10 03:35:56;;;;;;;8.32;5.50;;;;;;;7.07;68.61;98134.09;5026476;28;20041;-83
2021/10/10 03:38:22;;;;;;;12.45;7.03;;;;;;;7.06;68.63;98131.69;4998792;28;20033;-83
2021/10/10 03:40:48;;;;;;;11.77;6.03;;;;;;;7.01;68.08;98113.34;4998269;28;20037;-84
2021/10/10 03:43:13;;;;;;;10.10;6.38;;;;;;;7.13;67.63;98128.13;4982385;28;20033;-83
2021/10/10 03:45:39;;;;;;;9.48;6.18;;;;;;;7.14;67.36;98123.72;4998822;28;20029;-83
2021/10/10 03:48:04;;;;;;;9.20;5.47;;;;;;;7.17;67.51;98123.34;4999060;28;20040;-83
2021/10/10 03:50:30;;;;;;;9.35;5.75;;;;;;;7.15;67.29;98119.38;5022075;28;20036;-83
2021/10/10 03:52:55;;;;;;;9.32;6.05;;;;;;;7.11;67.28;98122.34;5018144;28;20040;-83
2021/10/10 03:58:15;;;;;;;12.27;7.80;;;;;;;7.02;67.50;98112.38;5022056;28;20596;-83
2021/10/10 04:00:40;;;;;;;12.23;7.70;;;;;;;7.02;67.82;98122.72;5002155;28;20021;-84
2021/10/10 04:03:07;;;;;;;11.82;6.97;;;;;;;7.01;68.57;98119.34;5017964;28;20025;-83
2021/10/10 04:08:00;;;;;;;13.77;7.57;;;;;;;7.05;68.58;98117.16;5003066;28;20034;-83
2021/10/10 04:10:26;;;;;;;13.45;7.70;;;;;;;7.10;69.24;98117.38;4978646;28;20092;-83
2021/10/10 04:12:52;;;;;;;11.75;7.65;;;;;;;7.12;68.85;98121.34;4998656;28;20029;-83
2021/10/10 04:15:18;;;;;;;13.23;8.15;;;;;;;7.20;69.54;98128.13;4985134;28;20549;-83
2021/10/10 04:17:44;;;;;;;13.43;7.85;;;;;;;7.22;68.63;98120.16;5002067;28;20112;-82
2021/10/10 04:20:11;;;;;;;11.55;7.40;;;;;;;7.20;69.10;98111.81;5006716;28;20511;-83
2021/10/10 04:22:38;;;;;;;10.20;6.82;;;;;;;7.29;68.65;98124.34;5021592;28;20032;-83
2021/10/10 04:25:04;;;;;;;10.07;7.18;;;;;;;7.21;67.91;98108.19;5021519;28;20025;-83
2021/10/10 04:27:32;;;;;;;10.80;7.13;;;;;;;7.24;68.22;98118.16;5021550;28;20396;-83
2021/10/10 04:29:57;;;;;;;12.82;7.43;;;;;;;7.15;68.46;98109.81;5038738;28;20742;-83
2021/10/10 04:32:23;;;;;;;12.75;7.60;;;;;;;7.22;68.29;98126.13;5021405;28;20029;-83
2021/10/10 04:34:48;;;;;;;10.75;6.85;;;;;;;7.22;68.35;98130.53;5019497;28;20025;-83
2021/10/10 04:37:13;;;;;;;13.07;7.35;;;;;;;7.22;68.24;98125.34;5017798;28;20947;-84
2021/10/10 04:39:39;;;;;;;13.68;7.47;;;;;;;7.25;68.40;98128.34;5034726;28;20431;-84
2021/10/10 04:42:05;;;;;;;15.63;11.05;;;;;;;7.24;67.80;98118.16;4985672;28;20026;-84
2021/10/10 04:44:31;;;;;;;26.48;15.52;;;;;;;7.26;67.80;98123.94;4985597;28;20029;-84
2021/10/10 04:46:57;;;;;;;15.93;12.05;;;;;;;7.22;68.49;98120.16;5016833;28;20036;-83
2021/10/10 04:49:22;;;;;;;14.10;9.15;;;;;;;7.19;68.56;98126.53;5018115;28;20392;-84
2021/10/10 04:51:47;;;;;;;12.38;7.90;;;;;;;7.14;68.37;98118.56;4981915;28;20030;-83
2021/10/10 04:54:13;;;;;;;11.00;7.22;;;;;;;7.08;67.67;98124.53;4998252;28;20057;-84
2021/10/10 04:56:40;;;;;;;9.32;6.38;;;;;;;7.00;68.06;98127.31;5014625;28;20088;-83
2021/10/10 04:59:05;;;;;;;14.48;12.98;;;;;;;6.92;68.05;98120.53;4998312;28;20029;-83
2021/10/10 05:01:31;;;;;;;14.25;10.45;;;;;;;6.94;67.53;98123.72;4975617;28;20104;-83
2021/10/10 05:03:56;;;;;;;11.88;7.95;;;;;;;6.92;67.62;98126.50;5017717;28;20040;-83
2021/10/10 05:06:21;;;;;;;11.48;7.20;;;;;;;6.87;67.36;98118.53;5031772;28;20060;-83
2021/10/10 05:08:47;;;;;;;11.95;7.13;;;;;;;6.88;66.86;98127.09;5004341;28;20033;-83
2021/10/10 05:11:12;;;;;;;12.48;6.55;;;;;;;6.85;67.19;98125.69;5020389;28;20048;-83
2021/10/10 05:13:37;;;;;;;9.55;5.88;;;;;;;6.84;67.08;98129.28;5037299;28;20032;-83
2021/10/10 05:16:04;;;;;;;12.00;9.23;;;;;;;6.78;67.77;98130.06;5013170;28;20478;-83
2021/10/10 05:18:30;;;;;;;14.98;11.07;;;;;;;6.84;68.05;98134.47;5030647;28;20037;-83
2021/10/10 05:20:56;;;;;;;13.07;10.98;;;;;;;6.85;68.32;98138.63;5008357;28;20497;-83
2021/10/10 05:23:21;;;;;;;10.77;7.35;;;;;;;6.84;67.82;98142.22;4984029;28;20075;-84
2021/10/10 05:25:47;;;;;;;12.05;7.82;;;;;;;6.83;67.36;98132.84;5000768;28;20025;-84
2021/10/10 05:28:12;;;;;;;14.38;7.85;;;;;;;6.82;67.85;98136.44;5000470;28;20378;-83
2021/10/10 05:30:38;;;;;;;12.45;8.15;;;;;;;6.82;67.93;98141.63;5016982;28;20037;-83
2021/10/10 05:33:03;;;;;;;13.02;8.13;;;;;;;6.80;67.89;98140.22;5000776;28;20358;-83
2021/10/10 05:35:29;;;;;;;11.40;7.00;;;;;;;6.83;68.28;98134.66;5007756;28;20668;-83
2021/10/10 05:37:55;;;;;;;12.23;7.45;;;;;;;6.83;68.60;98132.84;5036788;28;20029;-83
2021/10/10 05:40:20;;;;;;;11.13;7.43;;;;;;;6.84;68.26;98128.50;5036878;28;20108;-83
2021/10/10 05:42:46;;;;;;;14.27;7.57;;;;;;;6.78;68.52;98124.88;5036906;28;20029;-83
2021/10/10 05:45:11;;;;;;;14.80;8.60;;;;;;;6.78;68.52;98122.28;5003253;28;20029;-83
2021/10/10 05:47:37;;;;;;;18.38;9.02;;;;;;;6.89;68.92;98132.09;5016794;28;20037;-83
2021/10/10 05:50:04;;;;;;;12.85;7.75;;;;;;;6.91;68.36;98135.25;5013608;28;20038;-83
2021/10/10 05:52:30;;;;;;;14.15;7.97;;;;;;;6.94;68.12;98129.69;4995157;28;20033;-83
2021/10/10 05:54:55;;;;;;;13.73;8.70;;;;;;;6.99;68.09;98136.88;5000338;28;20618;-83
2021/10/10 05:57:25;;;;;;;15.88;8.80;;;;;;;7.00;68.60;98127.31;5016542;28;20029;-83
2021/10/10 05:59:55;;;;;;;13.75;8.98;;;;;;;7.01;69.27;98124.53;5001094;28;20029;-83
2021/10/10 06:02:20;;;;;;;15.48;8.70;;;;;;;7.07;68.37;98130.69;5017411;28;20378;-83
2021/10/10 06:04:46;;;;;;;16.00;9.82;;;;;;;7.04;68.59;98129.31;5013060;28;20029;-83
2021/10/10 06:07:11;;;;;;;18.20;11.73;;;;;;;7.02;68.84;98136.47;4988496;28;20441;-83
2021/10/10 06:09:36;;;;;;;14.15;10.10;;;;;;;7.02;68.91;98127.91;5006549;28;20037;-83
2021/10/10 06:12:02;;;;;;;14.05;9.52;;;;;;;7.08;68.76;98133.09;5025430;28;20115;-83
2021/10/10 06:14:29;;;;;;;15.75;9.27;;;;;;;7.07;68.54;98128.13;5006498;28;20030;-83
2021/10/10 06:16:55;;;;;;;13.23;9.27;;;;;;;7.12;69.07;98136.09;5009303;28;20026;-83
2021/10/10 06:19:20;;;;;;;18.38;10.88;;;;;;;7.13;68.98;98133.31;5016374;28;20109;-83
2021/10/10 06:21:46;;;;;;;18.90;12.30;;;;;;;7.16;69.01;98133.91;5016216;28;20082;-83
2021/10/10 06:24:11;;;;;;;16.45;11.52;;;;;;;7.16;69.00;98126.91;5015817;28;20083;-83
2021/10/10 06:26:36;;;;;;;15.55;12.07;;;;;;;7.20;68.84;98135.91;5013385;28;20706;-83
2021/10/10 06:29:02;;;;;;;15.10;10.10;;;;;;;7.22;68.31;98139.09;5000038;28;20079;-83
2021/10/10 06:31:27;;;;;;;15.95;9.50;;;;;;;7.18;68.36;98132.72;5016023;28;20117;-82
2021/10/10 06:33:52;;;;;;;17.15;10.30;;;;;;;7.21;68.82;98137.47;4999168;28;20120;-82
2021/10/10 06:36:21;;;;;;;16.63;9.63;;;;;;;7.24;68.54;98139.69;4997234;28;20154;-82
2021/10/10 06:38:49;;;;;;;14.40;9.00;;;;;;;7.21;68.59;98142.66;5036182;28;20036;-82
2021/10/10 06:41:15;;;;;;;17.42;9.13;;;;;;;7.42;68.67;98138.28;5043019;28;20124;-83
2021/10/10 06:43:40;;;;;;;14.60;8.88;;;;;;;7.45;68.65;98135.28;4999870;28;20064;-83
2021/10/10 06:46:06;;;;;;;15.23;9.20;;;;;;;7.55;68.65;98140.88;4998885;28;20120;-82
2021/10/10 06:48:31;;;;;;;14.15;8.52;;;;;;;7.66;68.38;98147.25;4999319;28;20033;-83
2021/10/10 06:50:57;;;;;;;16.27;10.02;;;;;;;7.79;68.46;98146.44;4993970;28;20080;-83
2021/10/10 06:53:22;;;;;;;17.05;9.98;;;;;;;7.87;68.19;98151.41;5015707;28;20397;-83
2021/10/10 06:55:48;;;;;;;15.25;10.13;;;;;;;7.98;68.39;98150.00;4999433;28;20258;-83
2021/10/10 06:58:13;;;;;;;17.45;10.57;;;;;;;8.08;68.36;98147.75;5015867;28;20033;-83
2021/10/10 07:00:39;;;;;;;16.92;11.45;;;;;;;8.15;68.22;98161.50;4999328;28;20029;-83
2021/10/10 07:03:04;;;;;;;17.33;9.90;;;;;;;8.12;68.13;98155.94;5015468;28;20104;-83
2021/10/10 07:05:29;;;;;;;14.80;10.05;;;;;;;8.18;68.13;98160.31;5006434;28;20473;-83
2021/10/10 07:07:55;;;;;;;17.77;10.18;;;;;;;8.26;68.05;98154.91;4998649;28;20060;-83
2021/10/10 07:10:20;;;;;;;15.30;9.40;;;;;;;8.31;68.36;98154.28;4982635;28;20477;-83
2021/10/10 07:12:45;;;;;;;14.75;10.15;;;;;;;8.43;67.65;98150.88;4998472;28;20032;-82
2021/10/10 07:15:13;;;;;;;14.93;9.93;;;;;;;8.45;67.83;98145.50;5015256;28;20492;-82
2021/10/10 07:17:38;;;;;;;16.95;10.05;;;;;;;8.53;67.69;98152.22;5014442;28;20037;-82
2021/10/10 07:22:44;;;;;;;14.40;9.63;;;;;;;8.66;67.26;98157.38;5014836;28;20025;-82
2021/10/10 07:25:10;;;;;;;17.42;9.68;;;;;;;8.73;66.80;98165.91;4998417;28;20039;-82
2021/10/10 07:27:41;;;;;;;17.48;11.32;;;;;;;8.70;66.94;98166.31;4998562;28;20056;-82
2021/10/10 07:30:09;;;;;;;14.32;9.27;;;;;;;9.01;66.32;98167.34;5014652;28;20121;-83
2021/10/10 07:32:35;;;;;;;17.05;10.43;;;;;;;9.17;66.44;98168.66;5031382;28;20092;-83
2021/10/10 07:35:04;;;;;;;16.20;11.00;;;;;;;9.23;66.00;98167.03;4998427;28;20030;-83
2021/10/10 07:37:29;;;;;;;15.30;9.25;;;;;;;9.46;66.09;98167.25;4995147;28;20033;-83
2021/10/10 07:39:55;;;;;;;18.40;9.60;;;;;;;9.55;65.32;98171.16;4979078;28;20030;-83
2021/10/10 07:42:21;;;;;;;17.00;9.23;;;;;;;9.57;65.66;98171.75;4991351;28;20022;-83
2021/10/10 07:44:52;;;;;;;15.93;9.93;;;;;;;9.84;65.41;98178.53;4998306;28;20021;-83
2021/10/10 07:49:50;;;;;;;14.55;9.38;;;;;;;10.21;63.85;98170.75;5029919;28;20056;-83
2021/10/10 07:52:17;;;;;;;14.52;9.90;;;;;;;10.17;63.97;98167.78;5030294;28;20111;-83
2021/10/10 07:54:43;;;;;;;13.25;9.32;;;;;;;10.31;63.71;98178.84;5010473;28;20025;-83
2021/10/10 07:57:12;;;;;;;12.77;8.48;;;;;;;10.36;63.41;98176.41;4993561;28;20034;-82
2021/10/10 07:59:38;;;;;;;18.00;9.07;;;;;;;10.42;63.11;98174.78;4998380;28;20021;-82
2021/10/10 08:02:03;;;;;;;15.45;9.00;;;;;;;10.63;62.19;98171.69;5007929;28;20495;-81
2021/10/10 08:04:29;;;;;;;15.75;8.55;;;;;;;10.67;62.29;98177.25;5013354;28;20022;-83
2021/10/10 08:06:55;;;;;;;14.45;8.93;;;;;;;10.70;62.10;98181.25;4994075;28;20531;-81
2021/10/10 08:09:21;;;;;;;13.30;9.32;;;;;;;10.73;61.88;98186.00;5000970;28;20079;-81
2021/10/10 08:11:46;;;;;;;12.18;8.10;;;;;;;10.90;61.80;98187.00;5001711;28;20038;-82
2021/10/10 08:14:13;;;;;;;14.70;8.55;;;;;;;10.96;61.52;98180.09;4996730;28;20032;-81
2021/10/10 08:16:39;;;;;;;14.02;8.02;;;;;;;11.20;60.93;98186.94;5000726;28;20067;-82
2021/10/10 08:19:05;;;;;;;12.77;9.35;;;;;;;11.35;60.54;98194.38;5001664;28;20052;-80
2021/10/10 08:21:31;;;;;;;15.55;9.23;;;;;;;11.27;60.12;98196.50;4992714;28;20027;-81
2021/10/10 08:23:58;;;;;;;14.75;9.27;;;;;;;11.23;59.32;98196.94;5008705;28;20038;-81
2021/10/10 08:26:24;;;;;;;12.35;8.38;;;;;;;11.24;60.09;98197.72;4997790;28;20030;-82
2021/10/10 08:28:49;;;;;;;12.57;8.50;;;;;;;11.23;59.59;98188.34;4997416;28;20393;-82
2021/10/10 08:31:14;;;;;;;11.90;9.05;;;;;;;11.14;59.69;98200.06;5013415;28;20109;-83
2021/10/10 08:33:40;;;;;;;14.02;8.35;;;;;;;11.38;59.51;98204.34;5010937;28;20033;-82
2021/10/10 08:36:08;;;;;;;14.77;7.57;;;;;;;11.35;59.87;98199.56;5033999;28;20037;-83
2021/10/10 08:38:34;;;;;;;15.93;9.20;;;;;;;11.53;59.78;98200.50;5001920;28;20477;-83
2021/10/10 08:41:01;;;;;;;14.93;8.75;;;;;;;11.55;59.77;98199.28;5011511;28;20029;-81
2021/10/10 08:43:29;;;;;;;13.73;9.18;;;;;;;11.68;60.13;98208.69;5027722;28;20026;-83
2021/10/10 08:45:55;;;;;;;15.63;10.38;;;;;;;11.66;59.58;98191.69;5016903;28;20035;-82
2021/10/10 08:48:20;;;;;;;15.85;10.35;;;;;;;11.50;59.47;98191.34;4995387;28;20029;-82
2021/10/10 08:50:46;;;;;;;14.40;10.73;;;;;;;11.63;59.48;98195.53;5007153;28;20509;-81
2021/10/10 08:53:12;;;;;;;17.65;11.05;;;;;;;11.68;59.25;98203.47;5006062;28;20463;-80
2021/10/10 08:55:37;;;;;;;18.10;11.00;;;;;;;11.79;59.44;98194.88;4987895;28;20021;-82
2021/10/10 08:58:06;;;;;;;14.75;9.82;;;;;;;11.64;59.38;98207.56;5005644;28;20033;-80
2021/10/10 09:00:33;;;;;;;16.92;11.30;;;;;;;11.80;59.27;98195.66;4991137;28;20021;-82
2021/10/10 09:03:00;;;;;;;14.60;9.70;;;;;;;11.86;59.56;98201.78;5006310;28;20052;-81
2021/10/10 09:05:26;;;;;;;14.93;10.50;;;;;;;11.76;59.32;98205.75;5025091;28;20030;-80
2021/10/10 09:07:54;;;;;;;16.77;10.73;;;;;;;11.82;59.06;98198.81;4993009;28;20041;-80
2021/10/10 09:10:27;;;;;;;15.40;11.07;;;;;;;11.76;58.90;98184.88;4977052;28;20056;-82
2021/10/10 09:12:53;;;;;;;13.27;9.18;;;;;;;11.94;58.29;98191.84;5010213;28;20030;-80
2021/10/10 09:15:20;;;;;;;13.90;9.88;;;;;;;11.91;58.54;98196.69;5022093;28;20103;-82
2021/10/10 09:17:54;;;;;;;15.10;10.07;;;;;;;12.00;58.84;98203.19;5023758;28;20469;-81
2021/10/10 09:20:34;;;;;;;18.25;9.98;;;;;;;12.16;58.26;98199.06;5030625;28;20057;-81
2021/10/10 09:23:00;;;;;;;15.25;9.20;;;;;;;12.38;57.63;98206.31;5032049;28;20552;-82
2021/10/10 09:25:26;;;;;;;14.05;8.82;;;;;;;12.55;57.89;98197.53;5000150;28;20029;-84
2021/10/10 09:27:52;;;;;;;15.07;9.07;;;;;;;12.57;57.19;98196.50;4992788;28;20033;-80
2021/10/10 09:30:22;;;;;;;12.20;8.77;;;;;;;12.91;56.56;98200.03;4995842;28;20034;-80
2021/10/10 09:32:53;;;;;;;15.75;10.05;;;;;;;12.99;55.72;98193.63;5013057;28;20505;-82
2021/10/10 09:35:24;;;;;;;12.35;8.18;;;;;;;13.10;55.46;98196.19;5003269;28;20029;-82
2021/10/10 09:38:04;;;;;;;14.82;8.93;;;;;;;13.17;55.80;98203.09;5015069;28;20033;-79
2021/10/10 09:40:31;;;;;;;12.20;8.38;;;;;;;13.48;54.72;98204.41;5015740;28;20040;-83
2021/10/10 09:43:01;;;;;;;12.85;8.75;;;;;;;13.67;54.22;98203.16;5000286;28;20618;-80
2021/10/10 09:45:31;;;;;;;10.68;7.93;;;;;;;13.72;54.81;98222.59;4999222;28;20037;-82
2021/10/10 09:47:57;;;;;;;14.35;8.52;;;;;;;14.02;54.08;98215.19;5015324;28;20401;-81
2021/10/10 09:50:25;;;;;;;12.30;8.32;;;;;;;14.13;53.52;98210.09;5018089;28;20696;-81
2021/10/10 09:53:01;;;;;;;10.40;7.40;;;;;;;13.99;52.67;98205.19;5016346;28;20040;-81
2021/10/10 09:55:28;;;;;;;10.63;7.13;;;;;;;14.34;52.90;98209.31;5015548;28;20041;-81
2021/10/10 09:57:54;;;;;;;10.00;7.43;;;;;;;14.74;52.21;98203.00;5011357;28;20049;-82
2021/10/10 10:00:25;;;;;;;10.10;7.10;;;;;;;15.01;50.49;98194.38;5014580;28;20064;-81
2021/10/10 10:02:51;;;;;;;12.05;7.03;;;;;;;15.40;50.11;98196.78;5031173;28;20033;-83
2021/10/10 10:05:26;;;;;;;10.27;6.88;;;;;;;15.39;49.62;98192.59;4998605;28;20090;-82
2021/10/10 10:07:53;;;;;;;11.45;7.20;;;;;;;15.21;50.17;98198.22;4999913;28;20036;-80
2021/10/10 10:10:20;;;;;;;11.32;7.22;;;;;;;15.42;49.72;98199.97;5013140;28;20063;-80
2021/10/10 10:12:46;;;;;;;8.05;6.68;;;;;;;15.63;49.23;98202.75;5013920;28;20033;-83
2021/10/10 10:15:12;;;;;;;11.32;7.28;;;;;;;15.57;49.99;98196.66;4995759;28;20040;-80
2021/10/10 10:17:37;;;;;;;10.52;6.97;;;;;;;15.53;50.25;98195.59;5014499;28;20029;-81
2021/10/10 10:20:04;;;;;;;11.15;7.07;;;;;;;15.56;50.02;98189.84;5014349;28;20030;-79
2021/10/10 10:22:36;;;;;;;10.95;7.60;;;;;;;15.27;50.09;98191.97;4997903;28;20500;-80
2021/10/10 10:25:03;;;;;;;9.65;6.68;;;;;;;15.57;49.17;98180.13;5031347;28;20026;-82
2021/10/10 10:27:29;;;;;;;10.80;7.07;;;;;;;15.74;48.97;98184.19;5016097;28;20037;-82
2021/10/10 10:29:57;;;;;;;10.88;7.07;;;;;;;15.85;49.49;98184.28;5015503;28;20036;-83
2021/10/10 10:32:29;;;;;;;10.88;7.40;;;;;;;16.07;49.70;98181.50;4983536;28;20062;-83
2021/10/10 10:35:00;;;;;;;12.32;7.95;;;;;;;16.29;49.29;98181.34;5008474;28;20042;-80
2021/10/10 10:37:52;;;;;;;10.70;6.88;;;;;;;16.27;48.91;98180.81;5006347;28;20044;-83
2021/10/10 10:40:27;;;;;;;11.13;6.70;;;;;;;16.15;47.31;98175.00;4974722;28;20517;-81
2021/10/10 10:42:53;;;;;;;10.55;6.97;;;;;;;16.53;47.67;98186.19;4995383;28;20025;-83
2021/10/10 10:45:21;;;;;;;9.85;5.85;;;;;;;16.63;48.35;98183.59;4987126;28;20041;-80
2021/10/10 10:47:48;;;;;;;9.73;6.60;;;;;;;16.99;46.46;98183.69;4996928;28;20042;-84
2021/10/10 10:50:15;;;;;;;9.85;6.25;;;;;;;17.19;46.56;98181.09;4998095;28;20044;-79
2021/10/10 10:52:42;;;;;;;10.43;6.88;;;;;;;17.25;45.76;98183.72;4981012;28;20373;-83
2021/10/10 10:55:16;;;;;;;8.23;6.43;;;;;;;17.19;46.80;98180.31;5013928;28;20250;-83
2021/10/10 10:57:48;;;;;;;10.75;6.85;;;;;;;17.19;45.52;98181.09;4996931;28;20025;-80
2021/10/10 11:00:21;;;;;;;11.02;7.80;;;;;;;17.60;46.27;98177.66;5013561;28;20427;-83
2021/10/10 11:03:02;;;;;;;9.65;7.43;;;;;;;17.64;45.14;98167.41;5031308;28;20026;-81
2021/10/10 11:05:39;;;;;;;12.05;7.80;;;;;;;17.52;45.27;98165.03;4996741;28;20098;-80
2021/10/10 11:08:07;;;;;;;11.65;7.35;;;;;;;18.17;43.85;98161.75;4997505;28;20100;-83
2021/10/10 11:10:34;;;;;;;10.88;7.80;;;;;;;18.37;44.38;98161.69;5017800;28;20041;-84
2021/10/10 11:13:06;;;;;;;10.55;7.70;;;;;;;18.68;43.52;98153.63;5020700;28;20042;-83
2021/10/10 11:15:54;;;;;;;9.95;7.20;;;;;;;18.08;43.69;98157.03;5013148;28;20484;-82
2021/10/10 11:18:26;;;;;;;8.60;6.68;;;;;;;19.00;42.79;98160.28;4982071;28;20113;-83
2021/10/10 11:21:01;;;;;;;10.95;7.20;;;;;;;19.25;42.54;98156.69;5013009;28;20025;-82
2021/10/10 11:23:29;;;;;;;10.30;7.22;;;;;;;19.18;42.31;98151.72;5010221;28;20437;-80
2021/10/10 11:25:56;;;;;;;9.07;7.10;;;;;;;18.87;42.70;98159.06;4993414;28;20029;-81
2021/10/10 11:28:40;;;;;;;9.13;6.60;;;;;;;18.49;42.70;98161.34;4993123;28;20034;-81
2021/10/10 11:31:30;;;;;;;9.27;6.88;;;;;;;19.10;42.21;98144.38;4979314;28;20081;-82
2021/10/10 11:34:00;;;;;;;8.93;7.05;;;;;;;19.73;40.66;98145.41;4969013;28;20042;-81
2021/10/10 11:36:47;;;;;;;10.98;7.72;;;;;;;19.73;40.25;98138.28;5006549;28;20082;-82
2021/10/10 11:39:21;;;;;;;8.20;6.70;;;;;;;20.22;40.31;98139.09;5032926;28;20646;-82
2021/10/10 11:41:51;;;;;;;7.73;6.40;;;;;;;20.66;38.68;98140.63;5032538;28;20048;-79